Latest Coastal Weather Observations for Mallacoota

IDV60701

Issued at 3:45 pm EDT Thursday 23 October 2014 (issued every 10 minutes, with the page automatically refreshed every 10 minutes)

About coastal observations | Map of coastal stations | Coastal observations for VIC | Marine services | Other Formats
Station Details ID: 084084 Name: MALLACOOTA Lat: -37.60 Lon: 149.73 Height: 22.0 m
Data from the previous 72 hours. | See also: Recent months at Mallacoota
Date/Time
EDT
Temp

°C
Wind Pressure Rain
since 9am
mm
Weather Cloud Vis
km
Sea
Height
m
Swell
Dir
 
Speed
knots
Gust
knots
hPa Trend Height
m
Period
s
Dir
23/03:30pm 18.6 S 8 12 1018.5 - 0.0 - - - - - - -
23/03:00pm 18.6 SSW 10 16 1018.7 - 0.0 - - - - - - -
23/02:30pm 18.7 S 13 18 1018.8 - 0.0 - - - - - - -
23/02:00pm 19.1 S 10 19 1018.7 - 0.0 - - - - - - -
23/01:30pm 19.2 S 11 18 1018.7 - 0.0 - - - - - - -
23/01:00pm 19.4 S 9 13 1018.5 - 0.0 - - - - - - -
23/12:30pm 19.9 SSW 10 14 1018.6 - 0.0 - - - - - - -
23/12:00pm 20.6 S 8 11 1018.8 - 0.0 - - - - - - -
23/11:30am 20.9 SSW 7 11 1018.9 - 0.0 - - - - - - -
23/11:00am 20.3 S 7 9 1019.0 - 0.0 - - - - - - -
23/10:30am 20.3 SSW 8 12 1019.0 - 0.0 - - - - - - -
23/10:00am 21.9 SW 7 11 1018.9 - 0.0 - - - - - - -
23/09:30am 20.5 SSW 7 12 1018.4 - 0.0 - - - - - - -
23/09:00am 20.4 S 4 7 1017.4 - 0.0 - - - - - - -
23/08:30am 20.0 S 5 9 1017.1 - 0.0 - - - - - - -
23/08:00am 19.9 ENE 3 4 1016.8 - 0.0 - - - - - - -
23/07:30am 18.9 NNW 1 3 1017.1 - 0.0 - - - - - - -
23/07:00am 17.0 SE 4 6 1017.1 - 0.0 - - - - - - -
23/06:30am 15.2 NW 4 9 1016.9 - 0.0 - - - - - - -
23/06:00am 15.4 WSW 3 5 1017.2 - 0.0 - - - - - - -
23/05:30am 15.9 NW 4 7 1016.4 - 0.0 - - - - - - -
23/05:00am 15.9 WSW 4 7 1016.0 - 0.0 - - - - - - -
23/04:30am 15.8 NNW 8 11 1015.1 - 0.0 - - - - - - -
23/04:00am 16.3 NNW 4 8 1015.2 - 0.0 - - - - - - -
23/03:30am 15.9 N 4 7 1015.1 - 0.0 - - - - - - -
23/03:00am 16.4 WNW 4 7 1015.7 - 0.0 - - - - - - -
23/02:30am 15.8 N 5 6 1015.5 - 0.0 - - - - - - -
23/02:00am 15.8 N 5 7 1015.8 - 0.0 - - - - - - -
23/01:30am 16.0 N 5 8 1016.3 - 0.0 - - - - - - -
23/01:00am 16.0 NNW 6 8 1016.9 - 0.0 - - - - - - -
23/12:30am 16.0 NNW 6 9 1017.0 - 0.0 - - - - - - -
23/12:00am 16.4 NW 8 11 1017.1 - 0.0 - - - - - - -
 
Date/Time
EDT
Temp

°C
Wind Pressure Rain
since 9am
mm
Weather Cloud Vis
km
Sea
Height
m
Swell
Dir
 
Speed
knots
Gust
knots
hPa Trend Height
m
Period
s
Dir
22/11:30pm 16.4 NNW 8 12 1017.1 - 0.0 - - - - - - -
22/11:00pm 16.1 NNW 7 9 1017.2 - 0.0 - - - - - - -
22/10:30pm 16.0 NNW 7 10 1017.4 - 0.0 - - - - - - -
22/10:00pm 16.0 N 6 8 1017.6 - 0.0 - - - - - - -
22/09:30pm 16.5 N 6 8 1017.8 - 0.0 - - - - - - -
22/09:00pm 16.7 N 6 9 1018.0 - 0.0 - - - - - - -
22/08:30pm 17.0 NNW 6 10 1017.8 - 0.0 - - - - - - -
22/08:00pm 17.9 N 7 10 1017.5 - 0.0 - - - - - - -
22/07:30pm 18.9 N 7 10 1017.3 - 0.0 - - - - - - -
22/07:00pm 19.9 N 6 9 1017.3 - 0.0 - - - - - - -
22/06:30pm 21.3 N 7 10 1017.0 - 0.0 - - - - - - -
22/06:00pm 22.6 N 8 11 1017.0 - 0.0 - - - - - - -
22/05:30pm 21.3 NE 5 8 1017.1 - 0.0 - - - - - - -
22/05:00pm 20.4 NE 7 12 1017.2 - 0.0 - - - - - - -
22/04:30pm 20.0 NNE 5 8 1017.3 - 0.0 - - - - - - -
22/04:00pm 20.7 NNE 5 8 1017.4 - 0.0 - - - - - - -
22/03:30pm 20.4 NE 6 12 1017.8 - 0.0 - - - - - - -
22/03:00pm 24.2 NE 7 12 1017.9 - 0.0 - - - - - - -
22/02:30pm 24.2 NNE 8 12 1018.4 - 0.0 - - - - - - -
22/02:00pm 23.9 N 8 11 1018.7 - 0.0 - - - - - - -
22/01:30pm 23.2 NNE 9 14 1018.9 - 0.0 - - - - - - -
22/01:00pm 22.7 N 9 13 1019.4 - 0.0 - - - - - - -
22/12:30pm 22.4 NNE 11 16 1019.6 - 0.0 - - - - - - -
22/12:00pm 21.9 N 11 16 1020.3 - 0.0 - - - - - - -
22/11:30am 21.0 N 12 17 1021.0 - 0.0 - - - - - - -
22/11:00am 20.4 N 11 16 1021.4 - 0.0 - - - - - - -
22/10:30am 19.2 N 12 20 1021.8 - 0.0 - - - - - - -
22/10:00am 18.5 N 13 20 1022.1 - 0.0 - - - - - - -
22/09:30am 17.9 N 13 20 1022.4 - 0.0 - - - - - - -
22/09:00am 16.9 N 14 24 1022.5 - 0.0 - - - - - - -
22/08:30am 16.4 N 12 21 1022.7 - 0.0 - - - - - - -
22/08:00am 15.8 N 13 21 1022.9 - 0.0 - - - - - - -
22/07:30am 14.9 N 12 19 1023.0 - 0.0 - - - - - - -
22/07:00am 14.2 N 11 21 1023.0 - 0.0 - - - - - - -
22/06:30am 13.7 N 11 17 1023.3 - 0.0 - - - - - - -
22/06:00am 13.4 N 9 13 1023.3 - 0.0 - - - - - - -
22/05:30am 13.6 N 11 16 1023.2 - 0.0 - - - - - - -
22/05:00am 13.7 N 10 17 1023.3 - 0.0 - - - - - - -
22/04:30am 13.8 N 11 16 1023.5 - 0.0 - - - - - - -
22/04:00am 13.8 N 12 18 1024.0 - 0.0 - - - - - - -
22/03:30am 13.8 N 10 17 1024.4 - 0.0 - - - - - - -
22/03:00am 13.9 N 10 16 1024.6 - 0.0 - - - - - - -
22/02:30am 14.1 N 11 18 1024.9 - 0.0 - - - - - - -
22/02:00am 14.1 N 11 16 1025.4 - 0.0 - - - - - - -
22/01:30am 13.9 N 10 16 1026.0 - 0.0 - - - - - - -
22/01:00am 14.0 N 11 18 1026.5 - 0.0 - - - - - - -
22/12:30am 14.2 N 11 17 1026.9 - 0.0 - - - - - - -
22/12:00am 14.1 N 9 14 1027.4 - 0.0 - - - - - - -
 
Date/Time
EDT
Temp

°C
Wind Pressure Rain
since 9am
mm
Weather Cloud Vis
km
Sea
Height
m
Swell
Dir
 
Speed
knots
Gust
knots
hPa Trend Height
m
Period
s
Dir
21/11:30pm 14.2 N 8 12 1027.7 - 0.0 - - - - - - -
21/11:00pm 14.6 N 10 16 1028.0 - 0.0 - - - - - - -
21/10:30pm 14.5 NNE 10 15 1028.0 - 0.0 - - - - - - -
21/10:00pm 14.0 NNE 8 10 1028.3 - 0.0 - - - - - - -
21/09:30pm 14.4 NNE 10 15 1028.5 - 0.0 - - - - - - -
21/09:00pm 14.4 NNE 9 13 1028.7 - 0.0 - - - - - - -
21/08:30pm 14.4 NNE 11 14 1028.5 - 0.0 - - - - - - -
21/08:00pm 14.6 NNE 12 16 1028.5 - 0.0 - - - - - - -
21/07:30pm 14.6 NNE 13 18 1028.4 - 0.0 - - - - - - -
21/07:00pm 15.0 NNE 13 19 1028.4 - 0.0 - - - - - - -
21/06:30pm 15.3 NNE 14 19 1028.4 - 0.0 - - - - - - -
21/06:00pm 15.9 NNE 13 19 1028.5 - 0.0 - - - - - - -
21/05:30pm 16.2 NNE 14 22 1028.6 - 0.0 - - - - - - -
21/05:00pm 16.3 NNE 14 20 1028.7 - 0.0 - - - - - - -
21/04:30pm 16.7 NNE 15 21 1028.5 - 0.0 - - - - - - -
21/04:00pm 16.7 NNE 12 20 1028.5 - 0.0 - - - - - - -
21/03:40pm 17.5 NNE 15 25 1028.8 - 0.0 - - - - - - -
21/03:30pm 17.1 NNE 13 21 1028.9 - 0.0 - - - - - - -
21/03:00pm 17.7 NNE 11 20 1029.2 - 0.0 - - - - - - -
21/02:30pm 18.0 NNE 14 20 1029.5 - 0.0 - - - - - - -
21/02:00pm 17.6 NNE 11 17 1030.1 - 0.0 - - - - - - -
21/01:30pm 16.9 NE 13 20 1030.5 - 0.0 - - - - - - -
21/01:00pm 16.6 NNE 13 20 1030.8 - 0.0 - - - - - - -
21/12:30pm 16.6 NNE 14 20 1031.3 - 0.0 - - - - - - -
21/12:00pm 16.4 NNE 14 19 1031.7 - 0.0 - - - - - - -
21/11:30am 16.6 NNE 13 19 1031.9 - 0.0 - - - - - - -
21/11:00am 16.1 NNE 11 17 1032.2 - 0.0 - - - - - - -
21/10:30am 16.3 NNE 12 19 1032.5 - 0.0 - - - - - - -
21/10:00am 15.8 NNE 14 19 1032.7 - 0.0 - - - - - - -
21/09:30am 15.5 NNE 11 19 1032.8 - 0.0 - - - - - - -
21/09:00am 15.2 NNE 11 19 1032.8 - 0.0 - - - - - - -
21/08:30am 14.9 NNE 8 12 1032.6 - 0.0 - - - - - - -
21/08:00am 14.6 NE 9 15 1032.4 - 0.0 - - - - - - -
21/07:30am 13.2 NNE 7 10 1032.3 - 0.0 - - - - - - -
21/07:00am 12.5 N 5 7 1032.0 - 0.0 - - - - - - -
21/06:30am 12.0 N 7 9 1031.8 - 0.0 - - - - - - -
21/06:00am 11.4 N 5 6 1031.8 - 0.0 - - - - - - -
21/05:30am 11.3 N 6 8 1031.6 - 0.0 - - - - - - -
21/05:00am 10.6 N 6 7 1031.6 - 0.0 - - - - - - -
21/04:30am 11.4 N 6 7 1031.7 - 0.0 - - - - - - -
21/04:00am 11.0 N 5 7 1031.7 - 0.0 - - - - - - -
21/03:30am 11.1 N 7 9 1031.9 - 0.0 - - - - - - -
21/03:00am 10.3 N 6 8 1032.3 - 0.0 - - - - - - -
21/02:30am 10.1 N 5 7 1032.4 - 0.0 - - - - - - -
21/02:00am 9.2 N 5 6 1032.6 - 0.0 - - - - - - -
21/01:30am 8.7 NNW 3 4 1032.8 - 0.0 - - - - - - -
21/01:00am 8.3 NNW 4 5 1033.0 - 0.0 - - - - - - -
21/12:30am 8.4 NNW 4 5 1033.2 - 0.0 - - - - - - -
21/12:00am 8.8 NNW 4 6 1033.4 - 0.0 - - - - - - -
 
Date/Time
EDT
Temp

°C
Wind Pressure Rain
since 9am
mm
Weather Cloud Vis
km
Sea
Height
m
Swell
Dir
 
Speed
knots
Gust
knots
hPa Trend Height
m
Period
s
Dir
20/11:30pm 9.4 NNW 4 6 1033.4 - 0.0 - - - - - - -
20/11:00pm 9.6 NW 4 5 1033.4 - 0.0 - - - - - - -
20/10:30pm 11.0 N 5 7 1033.5 - 0.0 - - - - - - -
20/10:00pm 13.7 ENE 9 13 1033.4 - 0.0 - - - - - - -
20/09:30pm 13.7 E 12 15 1033.4 - 0.0 - - - - - - -
20/09:00pm 13.8 E 12 16 1033.3 - 0.0 - - - - - - -
20/08:30pm 13.6 E 11 15 1033.0 - 0.0 - - - - - - -
20/08:00pm 13.5 E 10 14 1032.8 - 0.0 - - - - - - -
20/07:30pm 13.6 E 10 13 1032.6 - 0.0 - - - - - - -
20/07:00pm 13.7 E 10 13 1032.4 - 0.0 - - - - - - -
20/06:30pm 14.5 E 9 13 1032.4 - 0.0 - - - - - - -
20/06:00pm 14.8 E 8 12 1032.3 - 0.0 - - - - - - -
20/05:30pm 15.1 ESE 8 11 1032.2 - 0.0 - - - - - - -
20/05:00pm 14.9 ESE 7 11 1032.0 - 0.0 - - - - - - -
20/04:30pm 14.8 ESE 8 11 1031.7 - 0.0 - - - - - - -
20/04:00pm 15.2 ESE 9 12 1031.6 - 0.0 - - - - - - -

Other Formats:

Comma delimited format used in spreadsheet applications
http://www.bom.gov.au/fwo/IDV60701/IDV60701.94935.axf

JavaScript Object Notation format (JSON) in row-major order
http://www.bom.gov.au/fwo/IDV60701/IDV60701.94935.json